Time;durP1;ratioP1;P1;durP2;ratioP2;P2;SDS_P1;SDS_P2;PMS_P1;PMS_P2;Temp;Humidity;BMP_temperature;BMP_pressure;BME280_temperature;BME280_humidity;BME280_pressure;Samples;Min_cycle;Max_cycle;Signal;HPM_P1;HPM_P2
2023/10/18 00:01:37;;;;;;;5.20;4.70;;;13.20;88.00;;;;;;4920359;29;20450;-67
2023/10/18 00:04:03;;;;;;;4.37;3.97;;;13.30;88.00;;;;;;4920497;29;21367;-67
2023/10/18 00:06:32;;;;;;;4.20;3.80;;;13.20;87.90;;;;;;4900477;29;20475;-68
2023/10/18 00:09:32;;;;;;;5.10;4.70;;;13.20;87.90;;;;;;4916157;29;21264;-67
2023/10/18 00:11:48;;;;;;;5.03;4.53;;;13.20;87.90;;;;;;4913844;29;20808;-67
2023/10/18 00:14:18;;;;;;;6.30;4.63;;;13.20;87.90;;;;;;4882932;29;20524;-67
2023/10/18 00:16:44;;;;;;;6.60;4.20;;;13.20;87.90;;;;;;4890602;29;20462;-67
2023/10/18 00:19:12;;;;;;;5.57;4.50;;;13.20;87.90;;;;;;4920060;29;20547;-66
2023/10/18 00:21:40;;;;;;;4.60;4.20;;;13.20;87.90;;;;;;4889143;29;20506;-66
2023/10/18 00:24:06;;;;;;;5.33;4.67;;;13.20;87.90;;;;;;4902734;29;20478;-67
2023/10/18 00:26:33;;;;;;;5.20;4.70;;;13.20;87.90;;;;;;4902510;29;21119;-67
2023/10/18 00:29:01;;;;;;;5.10;4.53;;;13.20;87.90;;;;;;4905344;29;20510;-66
2023/10/18 00:31:27;;;;;;;4.90;4.40;;;13.10;87.80;;;;;;4920565;29;20514;-67
2023/10/18 00:33:55;;;;;;;5.17;4.67;;;13.10;87.80;;;;;;4939534;29;20549;-66
2023/10/18 00:36:24;;;;;;;4.87;4.33;;;13.20;87.80;;;;;;4921643;29;20479;-67
2023/10/18 00:38:53;;;;;;;4.90;4.27;;;13.10;87.80;;;;;;4939510;28;20448;-67
2023/10/18 00:41:32;;;;;;;6.43;5.03;;;13.20;87.90;;;;;;4920917;29;21474;-67
2023/10/18 00:44:00;;;;;;;4.53;4.13;;;13.10;88.50;;;;;;4902406;29;20970;-68
2023/10/18 00:46:28;;;;;;;5.43;4.43;;;13.10;88.60;;;;;;4921014;29;20477;-66
2023/10/18 00:48:56;;;;;;;5.10;4.70;;;13.10;87.70;;;;;;4938960;28;20519;-66
2023/10/18 00:51:24;;;;;;;5.23;4.83;;;13.10;87.80;;;;;;4906254;29;20445;-67
2023/10/18 00:53:52;;;;;;;4.80;4.40;;;13.10;87.80;;;;;;4903350;29;20520;-67
2023/10/18 00:56:21;;;;;;;4.80;4.40;;;13.10;87.80;;;;;;4906656;29;20455;-67
2023/10/18 00:58:52;;;;;;;5.30;4.80;;;13.10;87.80;;;;;;4887384;29;20461;-67
2023/10/18 01:01:22;;;;;;;4.90;4.50;;;13.10;87.80;;;;;;4939861;29;20938;-66
2023/10/18 01:03:49;;;;;;;5.27;4.77;;;13.00;87.70;;;;;;4922680;29;20938;-68
2023/10/18 01:06:21;;;;;;;5.03;4.60;;;13.00;87.70;;;;;;4923309;29;20528;-66
2023/10/18 01:08:50;;;;;;;5.73;4.90;;;13.10;87.70;;;;;;4941230;28;20462;-66
2023/10/18 01:11:23;;;;;;;5.73;4.80;;;13.10;87.70;;;;;;4908005;29;20967;-67
2023/10/18 01:13:55;;;;;;;4.50;4.10;;;13.00;87.60;;;;;;4906222;29;20460;-66
2023/10/18 01:16:21;;;;;;;5.23;4.73;;;13.00;87.60;;;;;;4924182;29;20466;-67
2023/10/18 01:18:53;;;;;;;5.10;4.70;;;13.00;87.60;;;;;;4925638;29;21005;-67
2023/10/18 01:21:28;;;;;;;5.20;4.80;;;13.00;87.70;;;;;;4925770;29;20487;-67
2023/10/18 01:24:04;;;;;;;4.43;4.03;;;13.00;87.60;;;;;;4940740;28;20439;-67
2023/10/18 01:26:38;;;;;;;5.73;4.70;;;13.00;87.60;;;;;;4931671;29;20471;-67
2023/10/18 01:29:09;;;;;;;4.67;4.30;;;13.00;87.60;;;;;;4891238;29;20480;-67
2023/10/18 01:31:37;;;;;;;4.90;4.50;;;13.00;87.60;;;;;;4904758;29;20424;-67
2023/10/18 01:34:05;;;;;;;4.83;4.43;;;13.00;87.60;;;;;;4903063;29;20535;-67
2023/10/18 01:36:35;;;;;;;4.90;4.50;;;13.00;87.60;;;;;;4902592;29;20439;-66
2023/10/18 01:39:01;;;;;;;4.67;4.37;;;13.00;87.50;;;;;;4902634;29;20661;-66
2023/10/18 01:41:29;;;;;;;4.73;4.33;;;12.90;87.50;;;;;;4904236;29;20443;-67
2023/10/18 01:46:46;;;;;;;5.90;4.80;;;12.90;87.50;;;;;;4898171;29;20481;-67
2023/10/18 01:49:21;;;;;;;5.10;4.70;;;12.90;87.60;;;;;;4905504;29;20452;-67
2023/10/18 01:51:54;;;;;;;5.50;5.00;;;12.90;87.60;;;;;;4922752;29;21044;-67
2023/10/18 01:54:25;;;;;;;5.30;4.87;;;12.90;88.30;;;;;;4925575;29;20445;-67
2023/10/18 01:56:57;;;;;;;5.33;4.83;;;12.90;87.50;;;;;;4894028;29;20819;-67
2023/10/18 01:59:27;;;;;;;5.30;4.80;;;12.90;87.50;;;;;;4874537;29;20477;-67
2023/10/18 02:01:57;;;;;;;4.97;4.47;;;12.90;87.50;;;;;;4922138;29;20430;-67
2023/10/18 02:04:30;;;;;;;5.43;5.00;;;12.90;87.40;;;;;;4906078;29;20434;-67
2023/10/18 02:06:59;;;;;;;4.77;4.37;;;12.90;87.40;;;;;;4905738;29;21420;-67
2023/10/18 02:09:35;;;;;;;4.67;4.30;;;12.80;87.30;;;;;;4906160;29;20951;-67
2023/10/18 02:12:07;;;;;;;5.50;4.77;;;12.80;87.30;;;;;;4905566;29;20436;-67
2023/10/18 02:14:38;;;;;;;4.83;4.47;;;12.80;87.30;;;;;;4906280;29;20463;-67
2023/10/18 02:17:07;;;;;;;4.67;4.27;;;12.80;87.30;;;;;;4906084;29;20435;-67
2023/10/18 02:19:37;;;;;;;5.10;4.70;;;12.90;87.40;;;;;;4905736;29;21066;-67
2023/10/18 02:22:07;;;;;;;5.40;4.90;;;12.80;87.30;;;;;;4889857;29;20438;-66
2023/10/18 02:24:34;;;;;;;5.40;4.73;;;12.80;87.30;;;;;;4893304;29;21231;-67
2023/10/18 02:27:03;;;;;;;5.63;5.03;;;12.80;87.30;;;;;;4877574;29;20490;-67
2023/10/18 02:29:34;;;;;;;4.77;4.37;;;12.80;87.30;;;;;;4905192;29;20495;-67
2023/10/18 02:32:04;;;;;;;4.70;4.30;;;12.80;87.30;;;;;;4889119;29;20424;-67
2023/10/18 02:34:34;;;;;;;6.53;4.70;;;12.80;87.30;;;;;;4922937;29;21263;-67
2023/10/18 02:37:06;;;;;;;5.20;4.70;;;12.80;87.30;;;;;;4906207;29;20440;-67
2023/10/18 02:39:35;;;;;;;5.83;5.27;;;12.80;87.20;;;;;;4889899;29;21130;-67
2023/10/18 02:42:04;;;;;;;9.00;4.60;;;12.80;87.20;;;;;;4904846;29;21389;-67
2023/10/18 02:44:35;;;;;;;5.60;5.10;;;12.80;87.20;;;;;;4922661;29;20521;-67
2023/10/18 02:47:10;;;;;;;4.77;4.40;;;12.80;87.20;;;;;;4923742;29;21054;-67
2023/10/18 02:49:40;;;;;;;5.67;5.17;;;12.80;87.20;;;;;;4905967;29;20511;-67
2023/10/18 02:52:09;;;;;;;5.93;4.20;;;12.80;87.20;;;;;;4906871;29;20428;-66
2023/10/18 02:54:40;;;;;;;5.07;4.67;;;12.70;87.10;;;;;;4889409;29;21047;-66
2023/10/18 02:57:10;;;;;;;5.73;4.57;;;12.70;87.10;;;;;;4889670;29;20444;-67
2023/10/18 02:59:40;;;;;;;5.00;4.60;;;12.70;87.10;;;;;;4922890;29;21013;-67
2023/10/18 03:02:15;;;;;;;5.10;4.70;;;12.70;87.10;;;;;;4875132;29;20629;-67
2023/10/18 03:04:47;;;;;;;5.00;4.63;;;12.70;87.10;;;;;;4904594;29;20443;-67
2023/10/18 03:07:18;;;;;;;4.70;4.30;;;12.70;87.10;;;;;;4903927;29;20481;-67
2023/10/18 03:09:53;;;;;;;5.47;4.97;;;12.70;87.90;;;;;;4905022;29;20440;-67
2023/10/18 03:12:24;;;;;;;5.33;4.83;;;12.70;87.20;;;;;;4904558;29;20443;-67
2023/10/18 03:14:55;;;;;;;4.80;4.40;;;12.70;87.20;;;;;;4878118;29;20451;-67
2023/10/18 03:17:28;;;;;;;4.90;4.47;;;12.70;87.10;;;;;;4921164;29;20462;-67
2023/10/18 03:19:56;;;;;;;5.03;4.63;;;12.60;87.00;;;;;;4876686;29;20456;-67
2023/10/18 03:22:30;;;;;;;4.10;3.80;;;12.70;87.10;;;;;;4889053;29;20449;-67
2023/10/18 03:24:59;;;;;;;4.77;4.37;;;12.60;87.00;;;;;;4891801;29;20472;-66
2023/10/18 03:27:32;;;;;;;5.00;4.60;;;12.60;86.90;;;;;;4924494;28;20525;-66
2023/10/18 03:29:58;;;;;;;4.50;4.20;;;12.60;86.90;;;;;;4941108;29;20518;-66
2023/10/18 03:32:25;;;;;;;4.87;4.47;;;12.60;86.90;;;;;;4923623;29;20424;-67
2023/10/18 03:34:54;;;;;;;4.97;4.57;;;12.60;86.90;;;;;;4939423;29;20498;-67
2023/10/18 03:37:24;;;;;;;5.10;4.60;;;12.60;86.90;;;;;;4922542;28;20458;-67
2023/10/18 03:39:55;;;;;;;5.10;4.60;;;12.60;86.80;;;;;;4940819;29;20434;-67
2023/10/18 03:42:33;;;;;;;4.70;4.40;;;12.60;86.80;;;;;;4924039;29;20434;-66
2023/10/18 03:45:00;;;;;;;5.40;5.00;;;12.60;86.90;;;;;;4940973;29;21020;-67
2023/10/18 03:47:36;;;;;;;4.70;4.30;;;12.60;86.90;;;;;;4907000;28;20590;-66
2023/10/18 03:50:07;;;;;;;5.40;4.90;;;12.50;87.60;;;;;;4928528;29;20869;-67
2023/10/18 03:52:35;;;;;;;5.37;4.87;;;12.60;86.90;;;;;;4939481;29;20982;-67
2023/10/18 03:57:43;;;;;;;4.97;4.57;;;12.50;86.80;;;;;;4922985;28;20439;-67
2023/10/18 04:02:56;;;;;;;4.80;4.40;;;12.50;86.80;;;;;;4922914;29;20440;-67
2023/10/18 04:08:04;;;;;;;4.43;4.13;;;12.50;86.80;;;;;;4922413;29;20461;-67
2023/10/18 04:10:36;;;;;;;5.20;4.80;;;12.50;86.70;;;;;;4923052;29;20438;-67
2023/10/18 04:13:11;;;;;;;5.30;4.90;;;12.50;86.80;;;;;;4906759;29;20455;-66
2023/10/18 04:15:45;;;;;;;5.20;4.63;;;12.50;86.80;;;;;;4940538;29;20422;-67
2023/10/18 04:18:12;;;;;;;5.30;4.80;;;12.50;86.80;;;;;;4906927;29;20531;-67
2023/10/18 04:20:42;;;;;;;5.50;4.97;;;12.50;86.90;;;;;;4940193;29;21351;-69
2023/10/18 04:23:15;;;;;;;4.73;4.33;;;12.50;86.80;;;;;;4939861;29;20513;-66
2023/10/18 04:26:00;;;;;;;4.67;4.27;;;12.50;86.80;;;;;;4945508;28;20896;-66
2023/10/18 04:28:31;;;;;;;5.13;4.70;;;12.40;86.60;;;;;;4942211;28;21205;-72
2023/10/18 04:31:02;;;;;;;4.77;4.37;;;12.40;86.60;;;;;;4925416;29;20522;-71
2023/10/18 04:33:41;;;;;;;5.40;4.70;;;12.40;86.60;;;;;;4941949;29;20509;-68
2023/10/18 04:36:14;;;;;;;4.57;4.17;;;12.40;86.60;;;;;;4926240;29;21257;-69
2023/10/18 04:38:44;;;;;;;5.20;4.70;;;12.40;86.60;;;;;;4927748;29;20443;-69
2023/10/18 04:43:53;;;;;;;9.10;4.70;;;12.40;86.60;;;;;;4944711;28;20437;-69
2023/10/18 04:46:31;;;;;;;4.33;3.93;;;12.40;86.60;;;;;;4944847;29;20474;-68
2023/10/18 04:51:27;;;;;;;6.30;5.80;;;12.40;86.60;;;;;;4927718;29;20432;-69
2023/10/18 04:53:57;;;;;;;6.20;5.60;;;12.40;86.60;;;;;;4896147;29;20463;-68
2023/10/18 04:59:29;;;;;;;5.47;5.00;;;12.30;86.50;;;;;;4869101;29;20461;-69
2023/10/18 05:04:29;;;;;;;5.13;4.73;;;12.30;86.50;;;;;;4926026;29;20443;-68
2023/10/18 05:06:58;;;;;;;5.33;4.83;;;12.30;86.60;;;;;;4929917;29;20511;-70
2023/10/18 05:09:41;;;;;;;5.17;4.60;;;12.30;86.60;;;;;;4917950;29;20519;-69
2023/10/18 05:12:30;;;;;;;6.20;5.50;;;12.30;86.60;;;;;;4925486;29;21324;-69
2023/10/18 05:17:30;;;;;;;5.30;4.80;;;12.30;86.60;;;;;;4943754;28;20432;-69
2023/10/18 05:20:07;;;;;;;5.23;4.77;;;12.30;86.60;;;;;;4942830;29;20439;-69
2023/10/18 05:22:41;;;;;;;5.10;4.70;;;12.30;86.70;;;;;;4935948;29;20458;-70
2023/10/18 06:04:00;;;;;;;5.57;5.00;;;12.10;86.90;;;;;;4992271;23;20508;-86
2023/10/18 06:06:26;;;;;;;5.60;5.10;;;12.00;86.90;;;;;;4971367;28;20721;-85
2023/10/18 06:08:57;;;;;;;5.60;4.57;;;12.00;86.90;;;;;;4984884;28;20472;-87
2023/10/18 06:11:23;;;;;;;5.60;5.00;;;12.00;86.80;;;;;;4980326;28;20478;-88
2023/10/18 06:13:49;;;;;;;5.10;4.67;;;12.00;86.70;;;;;;4947819;28;20468;-85
2023/10/18 06:16:24;;;;;;;4.63;4.20;;;12.10;86.70;;;;;;4941236;28;20943;-89
2023/10/18 06:18:49;;;;;;;4.97;4.57;;;12.10;86.70;;;;;;4960531;28;20459;-87
2023/10/18 06:21:25;;;;;;;5.17;4.63;;;12.10;86.70;;;;;;4961674;28;20513;-90
2023/10/18 06:23:56;;;;;;;4.43;4.10;;;12.10;86.70;;;;;;4966200;28;20547;-87
2023/10/18 06:26:28;;;;;;;4.50;4.17;;;12.10;86.60;;;;;;4965057;28;20966;-87
2023/10/18 06:29:00;;;;;;;5.23;4.70;;;12.10;86.60;;;;;;4962502;28;20488;-83
2023/10/18 06:31:30;;;;;;;5.37;4.87;;;12.10;86.50;;;;;;4972502;28;20428;-87
2023/10/18 06:33:57;;;;;;;5.20;4.40;;;12.10;86.50;;;;;;4978946;28;20425;-88
2023/10/18 06:36:24;;;;;;;5.10;4.70;;;12.10;86.50;;;;;;4958414;28;20466;-90
2023/10/18 06:38:53;;;;;;;4.63;4.23;;;12.10;86.50;;;;;;4955323;28;20473;-83
2023/10/18 06:41:20;;;;;;;5.10;4.40;;;12.10;86.50;;;;;;4955812;28;20523;-85
2023/10/18 06:43:48;;;;;;;4.90;4.40;;;12.10;86.50;;;;;;4940417;28;20440;-87
2023/10/18 06:46:26;;;;;;;5.03;4.60;;;12.10;86.50;;;;;;4987115;28;20475;-83
2023/10/18 06:48:59;;;;;;;7.23;5.53;;;12.10;86.50;;;;;;4985055;28;20441;-86
2023/10/18 06:51:31;;;;;;;6.63;5.07;;;12.10;86.50;;;;;;4988302;28;20467;-88
2023/10/18 06:54:06;;;;;;;6.73;5.90;;;12.00;86.40;;;;;;4962489;28;20469;-87
2023/10/18 06:56:39;;;;;;;5.33;4.87;;;12.00;86.30;;;;;;4974300;28;20433;-84
2023/10/18 06:59:07;;;;;;;6.00;5.40;;;12.00;86.30;;;;;;4982561;28;20421;-87
2023/10/18 07:01:42;;;;;;;6.47;5.87;;;12.00;86.40;;;;;;4968464;28;20516;-88
2023/10/18 07:04:18;;;;;;;5.97;5.37;;;12.00;86.40;;;;;;4985950;28;20460;-89
2023/10/18 07:06:49;;;;;;;5.60;5.10;;;12.00;86.40;;;;;;4973174;28;21048;-88
2023/10/18 07:09:26;;;;;;;5.33;4.83;;;12.00;86.70;;;;;;4982057;28;20451;-88
2023/10/18 07:11:57;;;;;;;5.77;5.27;;;12.10;86.50;;;;;;4978579;28;21158;-84
2023/10/18 07:14:26;;;;;;;5.80;5.30;;;12.00;86.30;;;;;;4972245;28;20510;-87
2023/10/18 07:17:00;;;;;;;6.03;5.43;;;12.00;86.50;;;;;;4983504;28;21107;-85
2023/10/18 07:19:47;;;;;;;6.20;5.13;;;12.00;86.50;;;;;;4969488;28;20448;-85
2023/10/18 07:22:21;;;;;;;5.33;4.67;;;12.00;86.50;;;;;;4952926;28;20436;-86
2023/10/18 07:24:54;;;;;;;6.50;4.93;;;12.00;86.50;;;;;;4968652;28;20452;-88
2023/10/18 07:27:23;;;;;;;6.73;4.90;;;12.00;86.50;;;;;;4973577;28;20541;-89
2023/10/18 07:29:49;;;;;;;6.20;5.03;;;12.00;86.60;;;;;;4982682;28;20976;-84
2023/10/18 07:32:23;;;;;;;4.80;4.40;;;12.00;86.60;;;;;;4980076;28;20442;-87
2023/10/18 07:34:54;;;;;;;7.70;4.80;;;12.00;86.60;;;;;;4980803;28;20931;-87
2023/10/18 07:37:41;;;;;;;5.27;4.87;;;12.00;86.50;;;;;;4963295;28;20654;-84
2023/10/18 07:40:09;;;;;;;5.13;4.67;;;12.00;86.60;;;;;;4988288;28;20431;-87
2023/10/18 07:42:42;;;;;;;5.30;4.80;;;12.00;86.60;;;;;;4937983;28;20512;-86
2023/10/18 07:45:21;;;;;;;4.97;4.57;;;12.00;86.70;;;;;;4959283;28;20517;-87
2023/10/18 07:47:54;;;;;;;5.70;4.43;;;12.00;86.70;;;;;;4960711;28;20418;-86
2023/10/18 07:50:51;;;;;;;4.53;4.13;;;12.00;86.70;;;;;;4940982;29;20431;-88
2023/10/18 07:53:20;;;;;;;6.27;5.43;;;12.00;86.70;;;;;;4962356;28;20421;-89
2023/10/18 07:55:56;;;;;;;5.47;4.97;;;12.00;86.70;;;;;;4968566;28;21378;-89
2023/10/18 07:58:26;;;;;;;6.13;4.90;;;12.00;87.30;;;;;;4936398;28;20492;-89
2023/10/18 08:03:31;;;;;;;4.17;3.70;;;12.00;86.80;;;;;;4950998;28;20449;-89
2023/10/18 08:10:09;;;;;;;4.50;4.10;;;12.00;86.90;;;;;;4964486;28;20438;-85
2023/10/18 08:12:35;;;;;;;6.00;5.03;;;12.00;86.80;;;;;;4935078;28;20568;-86
2023/10/18 08:15:13;;;;;;;5.97;5.20;;;12.00;86.90;;;;;;4966571;28;20510;-88
2023/10/18 08:22:50;;;;;;;4.20;3.90;;;12.00;86.90;;;;;;4952125;28;20461;-82
2023/10/18 08:25:31;;;;;;;5.00;4.50;;;12.00;86.90;;;;;;4958196;28;20456;-85
2023/10/18 08:27:58;;;;;;;4.73;4.33;;;12.00;86.90;;;;;;4950946;28;20452;-86
2023/10/18 08:33:29;;;;;;;4.53;4.13;;;12.00;87.00;;;;;;4939052;28;20463;-86
2023/10/18 08:35:58;;;;;;;4.30;4.00;;;12.00;87.00;;;;;;4959792;28;20567;-85
2023/10/18 08:38:28;;;;;;;4.60;4.30;;;12.00;87.00;;;;;;4954754;28;20460;-85
2023/10/18 08:41:13;;;;;;;4.50;3.93;;;12.00;87.10;;;;;;4985074;28;20514;-82
2023/10/18 08:44:05;;;;;;;4.43;4.03;;;12.00;87.10;;;;;;4941046;28;20451;-83
2023/10/18 08:46:40;;;;;;;4.80;4.37;;;12.00;87.10;;;;;;4975193;28;21080;-85
2023/10/18 08:49:10;;;;;;;5.20;4.70;;;12.00;87.10;;;;;;4944568;28;20440;-85
2023/10/18 08:51:38;;;;;;;5.93;3.97;;;12.00;87.10;;;;;;4981246;28;20453;-88
2023/10/18 08:54:17;;;;;;;4.27;3.90;;;12.10;87.20;;;;;;4956112;28;21345;-88
2023/10/18 08:56:47;;;;;;;4.97;4.23;;;12.10;87.20;;;;;;4991668;28;20443;-85
2023/10/18 08:59:18;;;;;;;4.70;4.30;;;12.10;87.20;;;;;;4963850;28;20947;-87
2023/10/18 09:04:59;;;;;;;4.40;4.00;;;12.10;87.30;;;;;;4931260;28;20461;-89
2023/10/18 09:07:43;;;;;;;3.73;3.43;;;12.10;87.30;;;;;;4971923;28;20481;-88
2023/10/18 09:10:13;;;;;;;4.10;3.70;;;12.10;87.30;;;;;;4961928;28;21128;-86
2023/10/18 09:17:57;;;;;;;4.40;4.00;;;12.10;87.30;;;;;;4960811;28;20452;-90
2023/10/18 09:20:29;;;;;;;4.23;3.73;;;12.10;87.30;;;;;;4975581;28;20436;-86
2023/10/18 09:23:03;;;;;;;3.70;3.40;;;12.10;87.30;;;;;;4983222;28;20433;-87
2023/10/18 09:25:47;;;;;;;3.60;3.30;;;12.10;87.50;;;;;;4975834;28;20426;-86
2023/10/18 09:28:32;;;;;;;6.13;4.30;;;12.10;87.50;;;;;;4984016;28;20425;-86
2023/10/18 09:31:09;;;;;;;6.93;3.90;;;12.10;87.50;;;;;;4947721;28;20986;-88
2023/10/18 09:34:10;;;;;;;5.67;3.93;;;12.20;87.50;;;;;;4992822;28;20514;-87
2023/10/18 09:36:39;;;;;;;4.23;3.83;;;12.20;87.80;;;;;;4958875;28;20628;-89
2023/10/18 09:39:13;;;;;;;3.93;3.63;;;12.10;87.90;;;;;;4985125;28;20454;-87
2023/10/18 09:41:42;;;;;;;4.40;4.00;;;12.10;88.00;;;;;;4978716;28;20446;-90
2023/10/18 09:44:08;;;;;;;4.50;3.90;;;12.20;87.90;;;;;;4962381;28;20429;-86
2023/10/18 09:46:34;;;;;;;4.57;3.77;;;12.20;87.90;;;;;;4962907;28;20474;-88
2023/10/18 09:49:05;;;;;;;4.00;3.70;;;12.20;87.80;;;;;;4993695;28;20420;-83
2023/10/18 09:51:32;;;;;;;4.53;4.13;;;12.20;87.80;;;;;;4984813;28;20461;-87
2023/10/18 09:54:07;;;;;;;4.50;4.20;;;12.20;87.70;;;;;;4976524;28;20451;-85
2023/10/18 09:56:37;;;;;;;5.20;4.17;;;12.30;87.60;;;;;;4935764;28;20465;-89
2023/10/18 09:59:12;;;;;;;4.73;4.13;;;12.30;87.40;;;;;;4961583;28;20529;-87
2023/10/18 10:04:12;;;;;;;4.20;3.80;;;12.40;87.30;;;;;;4966497;28;20480;-82
2023/10/18 10:06:45;;;;;;;4.90;4.40;;;12.40;87.30;;;;;;4961223;28;20480;-87
2023/10/18 10:09:13;;;;;;;4.40;4.00;;;12.40;87.30;;;;;;4956710;28;20430;-86
2023/10/18 10:11:45;;;;;;;3.93;3.53;;;12.40;87.20;;;;;;4970091;28;20464;-85
2023/10/18 10:14:15;;;;;;;4.37;4.00;;;12.50;87.20;;;;;;4971152;28;20529;-87
2023/10/18 10:16:52;;;;;;;4.73;4.33;;;12.50;87.10;;;;;;4949862;28;20487;-86
2023/10/18 10:19:23;;;;;;;4.10;3.80;;;12.50;87.10;;;;;;4963834;28;20460;-84
2023/10/18 10:21:50;;;;;;;4.20;3.80;;;12.50;87.00;;;;;;4953240;28;20457;-86
2023/10/18 10:24:36;;;;;;;4.33;3.93;;;12.50;87.00;;;;;;4984876;28;20510;-85
2023/10/18 10:27:39;;;;;;;4.97;3.93;;;12.50;87.00;;;;;;4970924;28;20635;-86
2023/10/18 10:30:33;;;;;;;4.27;3.87;;;12.50;87.00;;;;;;4945215;28;20449;-85
2023/10/18 10:33:16;;;;;;;3.60;3.30;;;12.50;87.00;;;;;;4966954;28;20438;-89
2023/10/18 10:35:46;;;;;;;4.23;3.93;;;12.60;87.20;;;;;;4953401;28;20452;-86
2023/10/18 10:38:18;;;;;;;4.40;4.00;;;12.60;87.20;;;;;;4992236;28;20449;-84
2023/10/18 10:41:19;;;;;;;4.10;3.70;;;12.60;87.20;;;;;;4967861;28;20449;-89
2023/10/18 10:44:22;;;;;;;3.77;3.47;;;12.60;87.10;;;;;;4966748;28;20437;-87
2023/10/18 10:47:10;;;;;;;4.17;3.87;;;12.60;87.00;;;;;;4961916;28;20570;-87
2023/10/18 10:49:58;;;;;;;3.90;3.60;;;12.60;87.00;;;;;;4948444;28;20543;-86
2023/10/18 10:52:29;;;;;;;4.07;3.73;;;12.70;87.20;;;;;;4961971;28;20524;-88
2023/10/18 10:55:34;;;;;;;3.70;3.40;;;12.60;87.00;;;;;;4979060;28;20429;-86
2023/10/18 10:58:17;;;;;;;4.33;3.93;;;12.70;87.00;;;;;;4945038;28;20494;-85
2023/10/18 11:01:12;;;;;;;3.90;3.50;;;12.70;87.00;;;;;;4990645;28;20436;-84
2023/10/18 11:03:54;;;;;;;3.80;3.50;;;12.70;87.10;;;;;;5004321;28;20463;-87
2023/10/18 11:06:26;;;;;;;3.83;3.53;;;12.70;87.10;;;;;;4961767;28;20818;-85
2023/10/18 11:08:55;;;;;;;3.97;3.47;;;12.80;87.10;;;;;;4952054;28;20440;-86
2023/10/18 11:11:22;;;;;;;4.17;3.77;;;12.80;87.10;;;;;;4980129;28;20447;-87
2023/10/18 11:13:50;;;;;;;4.60;3.87;;;12.80;87.00;;;;;;4972135;28;20526;-87
2023/10/18 11:16:20;;;;;;;3.60;3.40;;;12.80;87.00;;;;;;4954749;28;20468;-86
2023/10/18 11:18:52;;;;;;;4.93;4.10;;;12.80;87.00;;;;;;4976434;28;20424;-87
2023/10/18 11:21:21;;;;;;;4.03;3.60;;;12.90;87.00;;;;;;4970998;28;20469;-89
2023/10/18 11:26:41;;;;;;;4.80;3.77;;;12.90;86.90;;;;;;4920508;29;20506;-72
2023/10/18 11:29:07;;;;;;;3.80;3.40;;;13.00;86.90;;;;;;4918037;29;20484;-72
2023/10/18 11:31:41;;;;;;;3.90;3.60;;;13.00;86.90;;;;;;4886803;29;20523;-72
2023/10/18 11:34:14;;;;;;;3.73;3.43;;;13.00;87.00;;;;;;4887442;29;20459;-72
2023/10/18 11:36:42;;;;;;;4.23;3.70;;;13.00;86.80;;;;;;4892731;29;20460;-70
2023/10/18 11:41:45;;;;;;;3.90;3.60;;;13.00;86.60;;;;;;4916949;29;20454;-72
2023/10/18 11:44:34;;;;;;;3.77;3.47;;;13.00;86.50;;;;;;4885947;29;20520;-71
2023/10/18 11:47:19;;;;;;;3.67;3.37;;;13.10;86.50;;;;;;4885646;29;20464;-72
2023/10/18 11:49:52;;;;;;;3.90;3.60;;;13.10;86.40;;;;;;4863555;29;20548;-72
2023/10/18 11:52:25;;;;;;;3.90;3.60;;;13.10;86.40;;;;;;4886314;29;20418;-72
2023/10/18 11:55:09;;;;;;;3.70;3.40;;;13.10;86.20;;;;;;4887037;29;20443;-71
2023/10/18 11:57:41;;;;;;;3.47;2.87;;;13.10;86.30;;;;;;4918894;29;20425;-72
2023/10/18 12:02:55;;;;;;;3.70;3.40;;;13.20;86.40;;;;;;4885497;29;20487;-72
2023/10/18 12:05:27;;;;;;;3.80;3.50;;;13.20;86.50;;;;;;4886154;29;20763;-71
2023/10/18 12:07:57;;;;;;;3.37;3.07;;;13.20;86.40;;;;;;4900377;29;20467;-71
2023/10/18 12:10:35;;;;;;;3.57;3.27;;;13.20;86.40;;;;;;4887113;29;21141;-72
2023/10/18 12:13:07;;;;;;;4.20;3.90;;;13.20;86.40;;;;;;4901625;29;20451;-70
2023/10/18 12:15:34;;;;;;;4.33;3.63;;;13.30;86.50;;;;;;4910616;29;20437;-72
2023/10/18 12:18:03;;;;;;;3.50;3.20;;;13.30;86.40;;;;;;4886350;29;20450;-70
2023/10/18 12:20:36;;;;;;;3.30;3.00;;;13.30;86.30;;;;;;4886429;29;20431;-72
2023/10/18 12:26:06;;;;;;;4.50;3.00;;;13.30;86.30;;;;;;4862216;29;20488;-71
2023/10/18 12:28:39;;;;;;;3.97;3.67;;;13.30;86.20;;;;;;4886647;29;20459;-71
2023/10/18 12:31:16;;;;;;;4.23;3.87;;;13.30;86.10;;;;;;4888995;29;20449;-72
2023/10/18 12:33:48;;;;;;;3.30;3.10;;;13.40;86.10;;;;;;4902712;29;20531;-72
2023/10/18 12:36:22;;;;;;;5.30;3.60;;;13.40;86.10;;;;;;4870735;29;20910;-72
2023/10/18 12:38:55;;;;;;;3.07;2.87;;;13.40;86.10;;;;;;4886162;29;20465;-72
2023/10/18 12:41:31;;;;;;;4.07;3.60;;;13.40;86.10;;;;;;4917422;29;20444;-71
2023/10/18 12:44:00;;;;;;;4.07;3.70;;;13.40;86.00;;;;;;4917480;29;20477;-71
2023/10/18 12:46:26;;;;;;;3.90;3.60;;;13.40;86.00;;;;;;4901583;29;20480;-72
2023/10/18 12:48:52;;;;;;;5.80;3.13;;;13.50;86.10;;;;;;4901671;29;20453;-72
2023/10/18 12:51:20;;;;;;;3.77;3.33;;;13.50;86.00;;;;;;4901547;29;20430;-72
2023/10/18 12:53:49;;;;;;;4.00;3.70;;;13.50;86.00;;;;;;4886015;29;20459;-71
2023/10/18 13:01:31;;;;;;;3.53;3.10;;;13.60;86.10;;;;;;4910524;29;20448;-72
2023/10/18 13:04:00;;;;;;;3.30;3.10;;;13.60;86.10;;;;;;4885826;29;20429;-72
2023/10/18 13:06:42;;;;;;;3.80;3.50;;;13.60;86.00;;;;;;4888047;29;20466;-70
2023/10/18 13:14:23;;;;;;;3.43;3.13;;;13.70;86.00;;;;;;4887894;29;20864;-71
2023/10/18 13:16:56;;;;;;;4.13;3.30;;;13.70;85.90;;;;;;4901324;29;21008;-72
2023/10/18 13:19:24;;;;;;;2.87;2.63;;;13.70;85.90;;;;;;4895160;29;20449;-71
2023/10/18 13:21:50;;;;;;;3.60;3.30;;;13.70;85.90;;;;;;4908142;29;20432;-72
2023/10/18 13:26:53;;;;;;;3.20;3.00;;;13.70;86.00;;;;;;4908283;29;20479;-71
2023/10/18 13:31:51;;;;;;;5.13;3.00;;;13.70;85.90;;;;;;4902383;29;20443;-72
2023/10/18 13:34:20;;;;;;;3.90;3.57;;;13.80;86.00;;;;;;4885774;29;20432;-71
2023/10/18 13:36:55;;;;;;;3.43;3.10;;;13.80;85.90;;;;;;4919971;29;20556;-71
2023/10/18 13:39:23;;;;;;;3.63;3.33;;;13.80;85.90;;;;;;4912327;29;21059;-72
2023/10/18 13:41:51;;;;;;;3.83;2.90;;;13.80;85.90;;;;;;4905198;29;20838;-71
2023/10/18 13:44:23;;;;;;;3.07;2.80;;;13.80;85.90;;;;;;4905665;29;20512;-71
2023/10/18 13:46:54;;;;;;;3.00;2.80;;;13.80;86.00;;;;;;4906198;29;20556;-73
2023/10/18 13:49:23;;;;;;;3.90;3.60;;;13.90;85.90;;;;;;4921734;29;20462;-71
2023/10/18 13:51:55;;;;;;;4.37;3.03;;;13.90;86.10;;;;;;4906152;29;20428;-72
2023/10/18 13:54:22;;;;;;;3.37;3.07;;;13.90;86.00;;;;;;4889310;29;20525;-71
2023/10/18 13:56:49;;;;;;;3.40;3.10;;;13.90;86.00;;;;;;4870444;29;21315;-72
2023/10/18 13:59:16;;;;;;;3.83;3.53;;;13.90;86.00;;;;;;4927395;29;20463;-72
2023/10/18 14:01:44;;;;;;;3.50;3.20;;;13.90;86.00;;;;;;4920952;29;21100;-72
2023/10/18 14:04:13;;;;;;;5.60;3.13;;;13.90;86.00;;;;;;4900744;29;20452;-72
2023/10/18 14:06:41;;;;;;;3.57;3.27;;;13.90;85.90;;;;;;4904788;29;20479;-72
2023/10/18 14:09:15;;;;;;;2.97;2.73;;;13.90;86.00;;;;;;4890819;29;20451;-71
2023/10/18 14:11:46;;;;;;;3.60;3.30;;;14.00;86.10;;;;;;4888705;29;21022;-71
2023/10/18 14:14:12;;;;;;;3.60;3.30;;;14.00;86.20;;;;;;4887425;29;20436;-70
2023/10/18 14:16:39;;;;;;;3.47;3.17;;;14.00;86.10;;;;;;4891691;29;20448;-71
2023/10/18 14:19:06;;;;;;;3.27;3.00;;;14.00;86.10;;;;;;4905401;29;20456;-71
2023/10/18 14:21:38;;;;;;;3.90;3.60;;;14.00;86.20;;;;;;4888475;29;20427;-72
2023/10/18 14:24:07;;;;;;;3.20;3.00;;;14.00;86.10;;;;;;4883986;29;20461;-70
2023/10/18 14:26:39;;;;;;;3.40;3.10;;;14.00;86.10;;;;;;4887626;29;20477;-72
2023/10/18 14:29:11;;;;;;;3.00;2.80;;;14.00;86.20;;;;;;4904779;29;20448;-71
2023/10/18 14:31:41;;;;;;;3.43;2.80;;;14.00;86.10;;;;;;4909520;29;20472;-72
2023/10/18 14:34:08;;;;;;;3.33;3.00;;;14.10;86.30;;;;;;4888339;29;20451;-72
2023/10/18 14:36:38;;;;;;;5.93;3.10;;;14.10;86.30;;;;;;4888529;29;20432;-71
2023/10/18 14:39:04;;;;;;;3.53;3.23;;;14.10;86.40;;;;;;4886924;29;20456;-71
2023/10/18 14:41:33;;;;;;;3.03;2.70;;;14.10;86.40;;;;;;4918613;29;20473;-70
2023/10/18 14:44:04;;;;;;;3.23;3.00;;;14.10;86.50;;;;;;4895757;29;20469;-72
2023/10/18 14:46:32;;;;;;;3.37;3.07;;;14.10;86.40;;;;;;4872640;29;20468;-70
2023/10/18 14:48:58;;;;;;;2.90;2.70;;;14.10;86.50;;;;;;4887524;29;20705;-70
2023/10/18 14:51:31;;;;;;;3.43;2.90;;;14.10;86.50;;;;;;4897637;29;20472;-72
2023/10/18 14:53:59;;;;;;;4.40;3.23;;;14.10;86.50;;;;;;4878762;29;20859;-74
2023/10/18 14:56:26;;;;;;;3.13;2.80;;;14.10;86.50;;;;;;4857761;29;20454;-72
2023/10/18 14:58:55;;;;;;;3.20;2.90;;;14.20;86.50;;;;;;4876736;29;20442;-74
2023/10/18 15:01:21;;;;;;;5.23;3.37;;;14.20;86.60;;;;;;4895846;29;20447;-74
2023/10/18 15:03:47;;;;;;;2.93;2.67;;;14.20;86.60;;;;;;4889177;29;20447;-74
2023/10/18 15:06:19;;;;;;;3.27;2.97;;;14.20;86.70;;;;;;4869875;29;21135;-73
2023/10/18 15:08:54;;;;;;;2.70;2.50;;;14.20;86.70;;;;;;4873408;29;20469;-73